createdAt,value
2019-03-15T07:23:16.100Z,4.12
2019-03-15T07:25:44.907Z,2.53
2019-03-15T07:28:13.841Z,2.53
2019-03-15T07:30:42.453Z,2.67
2019-03-15T07:33:11.237Z,2.80
2019-03-15T07:35:40.220Z,3.33
2019-03-15T07:38:09.079Z,2.37
2019-03-15T07:40:37.842Z,5.10
2019-03-15T07:43:06.670Z,5.83
2019-03-15T07:45:35.571Z,4.40
2019-03-15T07:48:06.886Z,5.37
2019-03-15T07:50:35.466Z,5.60
2019-03-15T07:53:04.357Z,3.90
2019-03-15T07:55:33.038Z,4.77
2019-03-15T07:58:01.871Z,6.30
2019-03-15T08:00:30.778Z,5.83
2019-03-15T08:03:00.811Z,4.20
2019-03-15T08:05:29.490Z,3.67
2019-03-15T08:07:58.067Z,5.50
2019-03-15T08:10:26.884Z,5.10
2019-03-15T08:12:55.960Z,2.97
2019-03-15T08:15:24.951Z,2.30
2019-03-15T08:17:53.494Z,3.20
2019-03-15T08:20:22.124Z,2.60
2019-03-15T08:22:50.791Z,2.07
2019-03-15T08:25:19.553Z,3.60
2019-03-15T08:27:49.037Z,2.37
2019-03-15T08:30:18.917Z,2.33
2019-03-15T08:32:47.510Z,2.70
2019-03-15T08:35:16.189Z,2.70
2019-03-15T08:37:44.851Z,2.67
2019-03-15T08:40:14.508Z,2.83
2019-03-15T08:42:43.328Z,3.47
2019-03-15T08:45:18.188Z,1.80
2019-03-15T08:47:48.014Z,2.50
2019-03-15T08:50:18.181Z,1.90
2019-03-15T08:52:46.992Z,2.00
2019-03-15T08:55:15.787Z,1.80
2019-03-15T08:57:44.897Z,2.63
2019-03-15T09:00:15.954Z,2.70
2019-03-15T09:02:44.811Z,2.20
2019-03-15T09:05:14.599Z,1.63
2019-03-15T09:07:43.568Z,2.00
2019-03-15T09:10:23.371Z,4.63
2019-03-15T09:12:47.423Z,10.70
2019-03-15T09:15:16.089Z,3.80
2019-03-15T09:17:44.755Z,2.07
2019-03-15T09:20:14.668Z,1.40
2019-03-15T09:22:43.394Z,1.90
2019-03-15T09:25:20.489Z,2.50
2019-03-15T09:27:48.447Z,3.10
2019-03-15T09:30:23.600Z,2.00
2019-03-15T09:32:49.515Z,2.23
2019-03-15T09:35:18.538Z,2.10
2019-03-15T09:37:47.911Z,2.00
2019-03-15T09:40:16.918Z,1.40
2019-03-15T09:42:45.890Z,1.53
2019-03-15T09:45:16.436Z,2.43
2019-03-15T09:47:45.327Z,1.40
2019-03-15T09:50:22.874Z,2.00
2019-03-15T09:52:45.690Z,2.17
2019-03-15T09:55:14.990Z,1.90
2019-03-15T09:57:43.582Z,1.57
2019-03-15T10:00:16.973Z,3.17
2019-03-15T10:02:45.928Z,2.40
2019-03-15T10:05:14.952Z,2.27
2019-03-15T10:07:44.145Z,1.83
2019-03-15T10:10:19.299Z,1.87
2019-03-15T10:12:48.081Z,1.30
2019-03-15T10:15:17.510Z,1.47
2019-03-15T10:17:46.328Z,1.63
2019-03-15T10:20:15.397Z,1.80
2019-03-15T10:22:44.315Z,1.53
2019-03-15T10:25:14.355Z,1.67
2019-03-15T10:27:43.064Z,1.70
2019-03-15T10:30:16.656Z,1.43
2019-03-15T10:32:45.491Z,1.40
2019-03-15T10:35:14.373Z,1.93
2019-03-15T10:37:43.164Z,1.40
2019-03-15T10:40:19.762Z,1.67
2019-03-15T10:42:55.944Z,1.20
2019-03-15T10:45:25.455Z,1.30
2019-03-15T10:47:54.113Z,1.00
2019-03-15T10:50:23.025Z,1.60
2019-03-15T10:52:53.797Z,1.10
2019-03-15T10:55:22.287Z,1.70
2019-03-15T10:57:51.320Z,2.33
2019-03-15T11:00:20.914Z,5.00
2019-03-15T11:02:51.980Z,1.70
2019-03-15T11:05:20.654Z,1.83
2019-03-15T11:07:49.725Z,1.20
2019-03-15T11:10:18.543Z,1.53
2019-03-15T11:12:47.298Z,1.57
2019-03-15T11:15:16.727Z,2.77
2019-03-15T11:17:45.582Z,1.70
2019-03-15T11:20:14.332Z,2.07
2019-03-15T11:22:43.143Z,2.07
2019-03-15T11:25:12.530Z,1.60
2019-03-15T11:27:41.421Z,0.93
2019-03-15T11:30:14.679Z,1.10
2019-03-15T11:32:43.632Z,1.63
2019-03-15T11:35:12.733Z,1.33
2019-03-15T11:37:41.638Z,1.60
2019-03-15T11:40:19.151Z,2.40
2019-03-15T11:42:49.291Z,1.17
2019-03-15T11:45:18.092Z,1.03
2019-03-15T11:48:02.635Z,2.80
2019-03-15T11:50:21.603Z,1.67
2019-03-15T11:52:50.681Z,1.90
2019-03-15T11:55:19.529Z,1.30
2019-03-15T11:57:48.586Z,1.80
2019-03-15T12:00:18.254Z,2.27
2019-03-15T12:02:47.462Z,2.67
2019-03-15T12:05:16.451Z,1.20
2019-03-15T12:07:45.554Z,1.83
2019-03-15T12:10:15.257Z,1.40
2019-03-15T12:12:43.981Z,1.07
2019-03-15T12:15:14.188Z,1.23
2019-03-15T12:17:43.134Z,1.80
2019-03-15T12:20:12.814Z,1.53
2019-03-15T12:22:41.467Z,1.40
2019-03-15T12:25:13.038Z,2.00
2019-03-15T12:27:41.834Z,1.60
2019-03-15T12:30:16.599Z,1.27
2019-03-15T12:32:45.702Z,1.07
2019-03-15T12:35:15.155Z,1.13
2019-03-15T12:37:44.094Z,1.33
2019-03-15T12:40:13.897Z,2.30
2019-03-15T12:42:43.024Z,1.40
2019-03-15T12:45:12.657Z,1.97
2019-03-15T12:47:41.438Z,1.90
2019-03-15T12:50:16.448Z,2.20
2019-03-15T12:52:48.948Z,2.00
2019-03-15T12:55:16.053Z,1.83
2019-03-15T12:57:45.086Z,1.80
2019-03-15T13:00:16.166Z,1.80
2019-03-15T13:02:45.210Z,2.40
2019-03-15T13:05:14.278Z,2.33
2019-03-15T13:07:43.323Z,2.03
2019-03-15T13:10:22.562Z,1.70
2019-03-15T13:12:51.765Z,1.83
2019-03-15T13:15:20.641Z,1.80
2019-03-15T13:17:49.732Z,2.77
2019-03-15T13:20:18.730Z,1.87
2019-03-15T13:22:47.424Z,2.00
2019-03-15T13:25:16.252Z,2.27
2019-03-15T13:27:44.948Z,3.30
2019-03-15T13:30:14.832Z,2.10
2019-03-15T13:32:43.827Z,1.60
2019-03-15T13:35:13.858Z,1.97
2019-03-15T13:37:43.387Z,2.00
2019-03-15T13:40:18.048Z,1.73
2019-03-15T13:42:46.710Z,2.13
2019-03-15T13:45:16.654Z,3.17
2019-03-15T13:47:45.721Z,1.97
2019-03-15T13:50:21.509Z,1.90
2019-03-15T13:52:50.581Z,2.40
2019-03-15T13:55:21.084Z,2.10
2019-03-15T13:57:50.091Z,2.37
2019-03-15T14:00:19.790Z,1.97
2019-03-15T14:02:49.287Z,2.70
2019-03-15T14:05:18.048Z,2.40
2019-03-15T14:07:47.084Z,2.63
2019-03-15T14:10:17.204Z,2.10
2019-03-15T14:12:46.367Z,3.27
2019-03-15T14:15:17.196Z,2.70
2019-03-15T14:17:46.199Z,2.97
2019-03-15T14:20:14.958Z,2.10
2019-03-15T14:22:43.852Z,2.50
2019-03-15T14:25:15.375Z,2.50
2019-03-15T14:27:44.040Z,2.90
2019-03-15T14:30:14.021Z,2.53
2019-03-15T14:32:43.043Z,3.20
2019-03-15T14:35:11.807Z,4.03
2019-03-15T14:37:41.023Z,3.97
2019-03-15T14:40:11.158Z,4.10
2019-03-15T14:42:39.935Z,4.50
2019-03-15T14:45:15.991Z,3.60
2019-03-15T14:47:44.941Z,3.73
2019-03-15T14:50:15.940Z,3.23
2019-03-15T14:52:44.922Z,3.13
2019-03-15T14:55:15.806Z,3.97
2019-03-15T14:57:52.230Z,4.00
2019-03-15T15:00:16.080Z,3.87
2019-03-15T15:02:45.180Z,3.57
2019-03-15T15:05:14.276Z,3.23
2019-03-15T15:07:44.978Z,3.27
2019-03-15T15:10:15.119Z,4.00
2019-03-15T15:12:44.203Z,3.43
2019-03-15T15:15:20.682Z,3.90
2019-03-15T15:17:49.682Z,3.57
2019-03-15T15:20:19.185Z,3.37
2019-03-15T15:22:48.100Z,3.40
2019-03-15T15:25:20.051Z,2.83
2019-03-15T15:27:48.924Z,4.13
2019-03-15T15:30:18.410Z,4.40
2019-03-15T15:32:47.167Z,4.67
2019-03-15T15:35:16.560Z,4.10
2019-03-15T15:37:45.414Z,5.03
2019-03-15T15:40:19.045Z,4.57
2019-03-15T15:42:47.943Z,4.37
2019-03-15T15:45:17.011Z,5.40
2019-03-15T15:47:45.887Z,5.10
2019-03-15T15:50:15.561Z,5.17
2019-03-15T15:52:44.736Z,4.83
2019-03-15T15:55:14.710Z,4.13
2019-03-15T15:57:43.801Z,4.40
2019-03-15T16:00:15.102Z,5.10
2019-03-15T16:02:43.968Z,5.40
2019-03-15T16:05:13.050Z,5.30
2019-03-15T16:07:41.993Z,5.60
2019-03-15T16:10:17.756Z,5.60
2019-03-15T16:12:46.208Z,4.83
2019-03-15T16:15:19.038Z,5.10
2019-03-15T16:17:47.696Z,5.77
2019-03-15T16:20:16.194Z,6.07
2019-03-15T16:22:46.332Z,5.23
2019-03-15T16:25:15.831Z,5.30
2019-03-15T16:27:47.077Z,6.67
2019-03-15T16:30:19.098Z,6.00
2019-03-15T16:32:47.696Z,5.83
2019-03-15T16:35:16.874Z,6.23
2019-03-15T16:37:47.129Z,6.57
2019-03-15T16:40:17.290Z,6.77
2019-03-15T16:42:46.026Z,6.57
2019-03-15T16:45:27.435Z,6.67
2019-03-15T16:47:58.223Z,7.77
2019-03-15T16:50:26.860Z,7.77
2019-03-15T16:52:56.350Z,7.80
2019-03-15T16:55:25.239Z,6.43
2019-03-15T16:57:54.023Z,5.67
2019-03-15T17:00:22.975Z,5.80
2019-03-15T17:02:52.091Z,7.00
2019-03-15T17:05:20.763Z,5.87
2019-03-15T17:07:49.749Z,6.60
2019-03-15T17:10:21.527Z,5.77
2019-03-15T17:12:50.365Z,6.03
2019-03-15T17:15:23.760Z,6.60
2019-03-15T17:17:52.451Z,6.53
2019-03-15T17:20:21.228Z,5.57
2019-03-15T17:22:49.970Z,5.10
2019-03-15T17:25:18.797Z,5.30
2019-03-15T17:27:47.325Z,4.23
2019-03-15T17:30:18.150Z,5.40
2019-03-15T17:32:46.828Z,5.57
2019-03-15T17:35:17.111Z,5.97
2019-03-15T20:06:49.770Z,7.40
2019-03-15T20:09:17.707Z,5.87
2019-03-15T20:11:46.565Z,5.40
2019-03-15T20:14:15.240Z,6.43
2019-03-15T20:16:43.862Z,5.93
2019-03-15T20:19:12.527Z,5.60
2019-03-15T20:21:41.444Z,5.33
2019-03-15T20:24:10.387Z,10.90
2019-03-15T20:26:39.006Z,6.97
2019-03-15T20:29:08.062Z,7.20
2019-03-15T20:31:37.106Z,4.63
2019-03-15T20:34:07.104Z,3.83
2019-03-15T20:36:35.745Z,3.43
2019-03-15T20:39:05.981Z,2.87
2019-03-15T20:41:34.523Z,2.20
2019-03-15T20:44:03.210Z,2.40
2019-03-15T20:46:36.037Z,3.00
2019-03-15T20:49:02.104Z,2.17
2019-03-15T20:51:30.594Z,3.10
2019-03-15T20:53:59.143Z,2.83
2019-03-15T20:56:27.704Z,3.27
2019-03-15T20:58:56.305Z,3.13
2019-03-15T21:01:24.994Z,3.13
2019-03-15T21:03:56.337Z,3.67
2019-03-15T21:06:23.839Z,3.23
2019-03-15T21:08:54.628Z,3.30
2019-03-15T21:11:23.227Z,2.43
2019-03-15T21:13:52.198Z,2.60
2019-03-15T21:16:20.904Z,2.57
2019-03-15T21:18:49.926Z,2.37
